sensor_id;sensor_type;location;lat;lon;timestamp;pressure;altitude;pressure_sealevel;temperature;humidity
7906;BME280;13291;40.472;-3.878;2023-05-25T00:01:23;53158.03;;;-139.96;53.19
7906;BME280;13291;40.472;-3.878;2023-05-25T00:03:50;53182.03;;;-139.96;53.21
7906;BME280;13291;40.472;-3.878;2023-05-25T00:06:19;53174.03;;;-139.96;52.97
7906;BME280;13291;40.472;-3.878;2023-05-25T00:08:46;53174.03;;;-139.96;53.37
7906;BME280;13291;40.472;-3.878;2023-05-25T00:11:17;53174.03;;;-139.96;52.74
7906;BME280;13291;40.472;-3.878;2023-05-25T00:13:44;53184.03;;;-139.96;52.87
7906;BME280;13291;40.472;-3.878;2023-05-25T00:16:11;53178.03;;;-139.96;52.71
7906;BME280;13291;40.472;-3.878;2023-05-25T00:18:37;53166.03;;;-139.96;52.52
7906;BME280;13291;40.472;-3.878;2023-05-25T00:21:04;53158.03;;;-139.96;52.80
7906;BME280;13291;40.472;-3.878;2023-05-25T00:23:31;53170.03;;;-139.96;52.29
7906;BME280;13291;40.472;-3.878;2023-05-25T00:25:59;53156.03;;;-139.96;52.38
7906;BME280;13291;40.472;-3.878;2023-05-25T00:28:28;53168.03;;;-139.96;52.16
7906;BME280;13291;40.472;-3.878;2023-05-25T00:30:55;53154.00;;;-139.96;52.39
7906;BME280;13291;40.472;-3.878;2023-05-25T00:33:22;53166.03;;;-139.96;51.91
7906;BME280;13291;40.472;-3.878;2023-05-25T00:35:49;53166.03;;;-139.96;52.22
7906;BME280;13291;40.472;-3.878;2023-05-25T00:38:17;53206.03;;;-139.96;52.31
7906;BME280;13291;40.472;-3.878;2023-05-25T00:40:44;53178.03;;;-139.96;51.99
7906;BME280;13291;40.472;-3.878;2023-05-25T00:43:12;53182.03;;;-139.96;52.17
7906;BME280;13291;40.472;-3.878;2023-05-25T00:45:40;53162.03;;;-139.96;52.22
7906;BME280;13291;40.472;-3.878;2023-05-25T00:48:07;53166.03;;;-139.96;52.38
7906;BME280;13291;40.472;-3.878;2023-05-25T00:50:37;53174.03;;;-139.96;52.17
7906;BME280;13291;40.472;-3.878;2023-05-25T00:53:06;53166.03;;;-139.96;52.32
7906;BME280;13291;40.472;-3.878;2023-05-25T00:55:35;53160.03;;;-139.96;52.61
7906;BME280;13291;40.472;-3.878;2023-05-25T00:58:04;53182.03;;;-139.96;52.52
7906;BME280;13291;40.472;-3.878;2023-05-25T01:00:33;53160.03;;;-139.96;52.78
7906;BME280;13291;40.472;-3.878;2023-05-25T01:03:05;53188.03;;;-139.96;52.59
7906;BME280;13291;40.472;-3.878;2023-05-25T01:05:37;53170.03;;;-139.96;53.06
7906;BME280;13291;40.472;-3.878;2023-05-25T01:08:05;53194.03;;;-139.96;52.78
7906;BME280;13291;40.472;-3.878;2023-05-25T01:10:36;53184.03;;;-139.96;52.89
7906;BME280;13291;40.472;-3.878;2023-05-25T01:13:06;53206.03;;;-139.96;53.37
7906;BME280;13291;40.472;-3.878;2023-05-25T01:15:34;53182.03;;;-139.96;53.40
7906;BME280;13291;40.472;-3.878;2023-05-25T01:18:04;53180.03;;;-139.96;53.32
7906;BME280;13291;40.472;-3.878;2023-05-25T01:20:33;53174.03;;;-139.96;53.43
7906;BME280;13291;40.472;-3.878;2023-05-25T01:23:06;53180.03;;;-139.96;54.07
7906;BME280;13291;40.472;-3.878;2023-05-25T01:25:39;53194.03;;;-139.96;54.28
7906;BME280;13291;40.472;-3.878;2023-05-25T01:28:10;53178.03;;;-139.96;54.36
7906;BME280;13291;40.472;-3.878;2023-05-25T01:30:44;53154.00;;;-139.96;54.02
7906;BME280;13291;40.472;-3.878;2023-05-25T01:33:12;53192.03;;;-139.96;53.94
7906;BME280;13291;40.472;-3.878;2023-05-25T01:35:40;53216.03;;;-139.96;54.57
7906;BME280;13291;40.472;-3.878;2023-05-25T01:38:08;53206.03;;;-139.96;54.95
7906;BME280;13291;40.472;-3.878;2023-05-25T01:40:35;53190.03;;;-139.96;54.55
7906;BME280;13291;40.472;-3.878;2023-05-25T01:43:02;53202.03;;;-139.96;55.07
7906;BME280;13291;40.472;-3.878;2023-05-25T01:45:29;53164.03;;;-139.96;55.29
7906;BME280;13291;40.472;-3.878;2023-05-25T01:48:11;53192.03;;;-139.96;55.38
7906;BME280;13291;40.472;-3.878;2023-05-25T01:50:47;53188.03;;;-139.96;55.31
7906;BME280;13291;40.472;-3.878;2023-05-25T01:53:21;53230.03;;;-139.96;55.40
7906;BME280;13291;40.472;-3.878;2023-05-25T01:55:53;53210.03;;;-139.96;55.42
7906;BME280;13291;40.472;-3.878;2023-05-25T01:58:23;53230.03;;;-139.96;55.35
7906;BME280;13291;40.472;-3.878;2023-05-25T02:00:51;53180.03;;;-139.96;55.77
7906;BME280;13291;40.472;-3.878;2023-05-25T02:03:20;53206.03;;;-139.96;55.75
7906;BME280;13291;40.472;-3.878;2023-05-25T02:05:47;53180.03;;;-139.96;55.96
7906;BME280;13291;40.472;-3.878;2023-05-25T02:08:14;53198.03;;;-139.96;55.79
7906;BME280;13291;40.472;-3.878;2023-05-25T02:10:43;53202.03;;;-139.96;55.39
7906;BME280;13291;40.472;-3.878;2023-05-25T02:13:10;53200.03;;;-139.96;55.59
7906;BME280;13291;40.472;-3.878;2023-05-25T02:15:36;53176.03;;;-139.96;55.56
7906;BME280;13291;40.472;-3.878;2023-05-25T02:18:03;53226.03;;;-139.96;55.52
7906;BME280;13291;40.472;-3.878;2023-05-25T02:20:31;53216.03;;;-139.96;55.36
7906;BME280;13291;40.472;-3.878;2023-05-25T02:22:58;53194.03;;;-139.96;55.73
7906;BME280;13291;40.472;-3.878;2023-05-25T02:25:25;53192.03;;;-139.96;55.65
7906;BME280;13291;40.472;-3.878;2023-05-25T02:27:53;53202.03;;;-139.96;55.56
7906;BME280;13291;40.472;-3.878;2023-05-25T02:30:20;53186.03;;;-139.96;55.67
7906;BME280;13291;40.472;-3.878;2023-05-25T02:32:47;53226.03;;;-139.96;55.39
7906;BME280;13291;40.472;-3.878;2023-05-25T02:35:15;53202.03;;;-139.96;55.32
7906;BME280;13291;40.472;-3.878;2023-05-25T02:37:42;53198.03;;;-139.96;55.45
7906;BME280;13291;40.472;-3.878;2023-05-25T02:40:11;53182.03;;;-139.96;55.39
7906;BME280;13291;40.472;-3.878;2023-05-25T02:42:38;53196.03;;;-139.96;55.02
7906;BME280;13291;40.472;-3.878;2023-05-25T02:45:08;53218.03;;;-139.96;55.10
7906;BME280;13291;40.472;-3.878;2023-05-25T02:47:36;53198.03;;;-139.96;55.25
7906;BME280;13291;40.472;-3.878;2023-05-25T02:50:03;53202.03;;;-139.96;55.27
7906;BME280;13291;40.472;-3.878;2023-05-25T02:52:30;53174.03;;;-139.96;55.35
7906;BME280;13291;40.472;-3.878;2023-05-25T02:54:58;53190.03;;;-139.96;54.90
7906;BME280;13291;40.472;-3.878;2023-05-25T02:57:25;53170.03;;;-139.96;55.08
7906;BME280;13291;40.472;-3.878;2023-05-25T02:59:52;53216.03;;;-139.96;55.23
7906;BME280;13291;40.472;-3.878;2023-05-25T03:02:21;53172.03;;;-139.96;55.18
7906;BME280;13291;40.472;-3.878;2023-05-25T03:04:49;53198.03;;;-139.96;54.85
7906;BME280;13291;40.472;-3.878;2023-05-25T03:07:18;53202.03;;;-139.96;54.95
7906;BME280;13291;40.472;-3.878;2023-05-25T03:09:45;53224.03;;;-139.96;55.06
7906;BME280;13291;40.472;-3.878;2023-05-25T03:12:11;53200.03;;;-139.96;55.29
7906;BME280;13291;40.472;-3.878;2023-05-25T03:14:38;53188.03;;;-139.96;55.57
7906;BME280;13291;40.472;-3.878;2023-05-25T03:17:05;53202.03;;;-139.96;55.52
7906;BME280;13291;40.472;-3.878;2023-05-25T03:19:34;53230.03;;;-139.96;55.76
7906;BME280;13291;40.472;-3.878;2023-05-25T03:22:02;53254.03;;;-139.96;55.94
7906;BME280;13291;40.472;-3.878;2023-05-25T03:24:29;53206.03;;;-139.96;55.81
7906;BME280;13291;40.472;-3.878;2023-05-25T03:26:56;53226.03;;;-139.96;55.76
7906;BME280;13291;40.472;-3.878;2023-05-25T03:29:23;53234.03;;;-139.96;55.71
7906;BME280;13291;40.472;-3.878;2023-05-25T03:31:51;53222.03;;;-139.96;55.58
7906;BME280;13291;40.472;-3.878;2023-05-25T03:34:18;53202.03;;;-139.96;55.33
7906;BME280;13291;40.472;-3.878;2023-05-25T03:36:46;53198.03;;;-139.96;55.67
7906;BME280;13291;40.472;-3.878;2023-05-25T03:39:13;53206.03;;;-139.96;55.55
7906;BME280;13291;40.472;-3.878;2023-05-25T03:41:40;53210.03;;;-139.96;55.63
7906;BME280;13291;40.472;-3.878;2023-05-25T03:44:08;53190.03;;;-139.96;55.37
7906;BME280;13291;40.472;-3.878;2023-05-25T03:46:35;53226.03;;;-139.96;55.38
7906;BME280;13291;40.472;-3.878;2023-05-25T03:49:02;53206.03;;;-139.96;55.45
7906;BME280;13291;40.472;-3.878;2023-05-25T03:51:30;53190.03;;;-139.96;55.24
7906;BME280;13291;40.472;-3.878;2023-05-25T03:53:58;53202.03;;;-139.96;55.43
7906;BME280;13291;40.472;-3.878;2023-05-25T03:56:25;53196.03;;;-139.96;55.07
7906;BME280;13291;40.472;-3.878;2023-05-25T03:58:52;53226.03;;;-139.96;55.38
7906;BME280;13291;40.472;-3.878;2023-05-25T04:01:19;53188.03;;;-139.96;55.42
7906;BME280;13291;40.472;-3.878;2023-05-25T04:03:46;53230.03;;;-139.96;55.75
7906;BME280;13291;40.472;-3.878;2023-05-25T04:06:13;53222.03;;;-139.96;55.75
7906;BME280;13291;40.472;-3.878;2023-05-25T04:08:43;53182.03;;;-139.96;55.67
7906;BME280;13291;40.472;-3.878;2023-05-25T04:11:12;53210.03;;;-139.96;55.92
7906;BME280;13291;40.472;-3.878;2023-05-25T04:13:38;53186.03;;;-139.96;55.52
7906;BME280;13291;40.472;-3.878;2023-05-25T04:16:06;53218.03;;;-139.96;55.46
7906;BME280;13291;40.472;-3.878;2023-05-25T04:18:32;53226.03;;;-139.96;55.96
7906;BME280;13291;40.472;-3.878;2023-05-25T04:20:59;53228.03;;;-139.96;56.00
7906;BME280;13291;40.472;-3.878;2023-05-25T04:23:26;53214.03;;;-139.96;55.70
7906;BME280;13291;40.472;-3.878;2023-05-25T04:25:53;53212.03;;;-139.96;55.83
7906;BME280;13291;40.472;-3.878;2023-05-25T04:28:21;53202.03;;;-139.96;55.96
7906;BME280;13291;40.472;-3.878;2023-05-25T04:30:48;53218.03;;;-139.96;56.16
7906;BME280;13291;40.472;-3.878;2023-05-25T04:33:16;53190.03;;;-139.96;56.42
7906;BME280;13291;40.472;-3.878;2023-05-25T04:35:44;53202.03;;;-139.96;56.29
7906;BME280;13291;40.472;-3.878;2023-05-25T04:38:11;53202.03;;;-139.96;56.36
7906;BME280;13291;40.472;-3.878;2023-05-25T04:40:41;53214.03;;;-139.96;56.55
7906;BME280;13291;40.472;-3.878;2023-05-25T04:43:10;53228.03;;;-139.96;56.30
7906;BME280;13291;40.472;-3.878;2023-05-25T04:45:39;53216.03;;;-139.96;56.75
7906;BME280;13291;40.472;-3.878;2023-05-25T04:48:07;53222.03;;;-139.96;56.99
7906;BME280;13291;40.472;-3.878;2023-05-25T04:50:34;53190.03;;;-139.96;57.15
7906;BME280;13291;40.472;-3.878;2023-05-25T04:53:01;53248.03;;;-139.96;57.16
7906;BME280;13291;40.472;-3.878;2023-05-25T04:55:28;53230.03;;;-139.96;56.97
7906;BME280;13291;40.472;-3.878;2023-05-25T04:57:55;53206.03;;;-139.96;57.46
7906;BME280;13291;40.472;-3.878;2023-05-25T05:00:23;53228.03;;;-139.96;57.37
7906;BME280;13291;40.472;-3.878;2023-05-25T05:02:53;53222.03;;;-139.96;57.04
7906;BME280;13291;40.472;-3.878;2023-05-25T05:05:20;53220.03;;;-139.96;57.24
7906;BME280;13291;40.472;-3.878;2023-05-25T05:07:47;53244.03;;;-139.96;56.97
7906;BME280;13291;40.472;-3.878;2023-05-25T05:10:14;53212.03;;;-139.96;57.46
7906;BME280;13291;40.472;-3.878;2023-05-25T05:12:42;53222.03;;;-139.96;57.10
7906;BME280;13291;40.472;-3.878;2023-05-25T05:15:09;53246.03;;;-139.96;57.45
7906;BME280;13291;40.472;-3.878;2023-05-25T05:17:36;53214.03;;;-139.96;57.18
7906;BME280;13291;40.472;-3.878;2023-05-25T05:20:06;53214.03;;;-139.96;57.30
7906;BME280;13291;40.472;-3.878;2023-05-25T05:22:33;53226.03;;;-139.96;57.37
7906;BME280;13291;40.472;-3.878;2023-05-25T05:25:00;53226.03;;;-139.96;57.30
7906;BME280;13291;40.472;-3.878;2023-05-25T05:27:27;53214.03;;;-139.96;57.62
7906;BME280;13291;40.472;-3.878;2023-05-25T05:29:54;53220.03;;;-139.96;57.64
7906;BME280;13291;40.472;-3.878;2023-05-25T05:32:21;53218.03;;;-139.96;57.32
7906;BME280;13291;40.472;-3.878;2023-05-25T05:34:49;53228.03;;;-139.96;57.36
7906;BME280;13291;40.472;-3.878;2023-05-25T05:37:17;53230.03;;;-139.96;57.38
7906;BME280;13291;40.472;-3.878;2023-05-25T05:39:44;53224.03;;;-139.96;57.42
7906;BME280;13291;40.472;-3.878;2023-05-25T05:42:10;53192.03;;;-139.96;57.18
7906;BME280;13291;40.472;-3.878;2023-05-25T05:44:37;53196.03;;;-139.96;57.32
7906;BME280;13291;40.472;-3.878;2023-05-25T05:47:04;53222.03;;;-139.96;57.46
7906;BME280;13291;40.472;-3.878;2023-05-25T05:49:31;53226.03;;;-139.96;57.73
7906;BME280;13291;40.472;-3.878;2023-05-25T05:51:59;53246.03;;;-139.96;57.37
7906;BME280;13291;40.472;-3.878;2023-05-25T05:54:27;53190.03;;;-139.96;57.24
7906;BME280;13291;40.472;-3.878;2023-05-25T05:56:54;53234.03;;;-139.96;57.36
7906;BME280;13291;40.472;-3.878;2023-05-25T05:59:21;53214.03;;;-139.96;57.39
7906;BME280;13291;40.472;-3.878;2023-05-25T06:01:48;53202.03;;;-139.96;57.69
7906;BME280;13291;40.472;-3.878;2023-05-25T06:04:16;53228.03;;;-139.96;57.67
7906;BME280;13291;40.472;-3.878;2023-05-25T06:06:42;53238.03;;;-139.96;57.83
7906;BME280;13291;40.472;-3.878;2023-05-25T06:09:10;53238.03;;;-139.96;57.34
7906;BME280;13291;40.472;-3.878;2023-05-25T06:11:38;53234.03;;;-139.96;57.55
7906;BME280;13291;40.472;-3.878;2023-05-25T06:14:05;53246.03;;;-139.96;57.40
7906;BME280;13291;40.472;-3.878;2023-05-25T06:16:32;53214.03;;;-139.96;57.15
7906;BME280;13291;40.472;-3.878;2023-05-25T06:18:59;53238.03;;;-139.96;56.90
7906;BME280;13291;40.472;-3.878;2023-05-25T06:21:26;53196.03;;;-139.96;57.11
7906;BME280;13291;40.472;-3.878;2023-05-25T06:23:53;53234.03;;;-139.96;56.98
7906;BME280;13291;40.472;-3.878;2023-05-25T06:26:22;53232.03;;;-139.96;56.83
7906;BME280;13291;40.472;-3.878;2023-05-25T06:28:50;53238.03;;;-139.96;57.01
7906;BME280;13291;40.472;-3.878;2023-05-25T06:31:17;53230.03;;;-139.96;57.03
7906;BME280;13291;40.472;-3.878;2023-05-25T06:33:44;53228.03;;;-139.96;57.06
7906;BME280;13291;40.472;-3.878;2023-05-25T06:36:11;53226.03;;;-139.96;56.77
7906;BME280;13291;40.472;-3.878;2023-05-25T06:38:39;53226.03;;;-139.96;56.45
7906;BME280;13291;40.472;-3.878;2023-05-25T06:41:06;53234.03;;;-139.96;56.90
7906;BME280;13291;40.472;-3.878;2023-05-25T06:43:34;53200.03;;;-139.96;56.85
7906;BME280;13291;40.472;-3.878;2023-05-25T06:46:02;53198.03;;;-139.96;56.94
7906;BME280;13291;40.472;-3.878;2023-05-25T06:48:29;53218.03;;;-139.96;56.81
7906;BME280;13291;40.472;-3.878;2023-05-25T06:50:56;53242.03;;;-139.96;56.47
7906;BME280;13291;40.472;-3.878;2023-05-25T06:53:23;53214.03;;;-139.96;57.01
7906;BME280;13291;40.472;-3.878;2023-05-25T06:55:50;53226.03;;;-139.96;56.88
7906;BME280;13291;40.472;-3.878;2023-05-25T06:58:16;53246.03;;;-139.96;56.50
7906;BME280;13291;40.472;-3.878;2023-05-25T07:00:43;53194.03;;;-139.96;56.31
7906;BME280;13291;40.472;-3.878;2023-05-25T07:03:11;53240.03;;;-139.96;55.98
7906;BME280;13291;40.472;-3.878;2023-05-25T07:05:38;53184.03;;;-139.96;55.93
7906;BME280;13291;40.472;-3.878;2023-05-25T07:08:05;53240.03;;;-139.96;55.51
7906;BME280;13291;40.472;-3.878;2023-05-25T07:10:32;53190.03;;;-139.96;55.19
7906;BME280;13291;40.472;-3.878;2023-05-25T07:12:59;53190.03;;;-139.96;54.62
7906;BME280;13291;40.472;-3.878;2023-05-25T07:15:26;53198.03;;;-139.96;54.50
7906;BME280;13291;40.472;-3.878;2023-05-25T07:17:53;53184.03;;;-139.96;54.88
7906;BME280;13291;40.472;-3.878;2023-05-25T07:20:22;53218.03;;;-139.96;54.50
7906;BME280;13291;40.472;-3.878;2023-05-25T07:22:49;53174.03;;;-139.96;53.98
7906;BME280;13291;40.472;-3.878;2023-05-25T07:25:17;53202.03;;;-139.96;54.50
7906;BME280;13291;40.472;-3.878;2023-05-25T07:27:47;53152.00;;;-139.96;54.35
7906;BME280;13291;40.472;-3.878;2023-05-25T07:30:14;53198.03;;;-139.96;53.58
7906;BME280;13291;40.472;-3.878;2023-05-25T07:32:41;53186.03;;;-139.96;53.31
7906;BME280;13291;40.472;-3.878;2023-05-25T07:35:08;53212.03;;;-139.96;53.49
7906;BME280;13291;40.472;-3.878;2023-05-25T07:37:36;53186.03;;;-139.96;54.22
7906;BME280;13291;40.472;-3.878;2023-05-25T07:40:04;53168.03;;;-139.96;54.43
7906;BME280;13291;40.472;-3.878;2023-05-25T07:42:31;53216.03;;;-139.96;53.90
7906;BME280;13291;40.472;-3.878;2023-05-25T07:44:59;53214.03;;;-139.96;53.56
7906;BME280;13291;40.472;-3.878;2023-05-25T07:47:26;53170.03;;;-139.96;53.13
7906;BME280;13291;40.472;-3.878;2023-05-25T07:49:53;53144.00;;;-139.96;53.03
7906;BME280;13291;40.472;-3.878;2023-05-25T07:52:20;53174.03;;;-139.96;52.55
7906;BME280;13291;40.472;-3.878;2023-05-25T07:54:48;53180.03;;;-139.96;52.35
7906;BME280;13291;40.472;-3.878;2023-05-25T07:57:15;53164.03;;;-139.96;52.00
7906;BME280;13291;40.472;-3.878;2023-05-25T07:59:42;53162.03;;;-139.96;51.67
7906;BME280;13291;40.472;-3.878;2023-05-25T08:02:09;53164.03;;;-139.96;51.54
7906;BME280;13291;40.472;-3.878;2023-05-25T08:04:36;53166.03;;;-139.96;51.27
7906;BME280;13291;40.472;-3.878;2023-05-25T08:07:03;53178.03;;;-139.96;51.67
7906;BME280;13291;40.472;-3.878;2023-05-25T08:09:30;53162.03;;;-139.96;51.47
7906;BME280;13291;40.472;-3.878;2023-05-25T08:11:58;53158.03;;;-139.96;51.32
7906;BME280;13291;40.472;-3.878;2023-05-25T08:14:26;53154.00;;;-139.96;51.14
7906;BME280;13291;40.472;-3.878;2023-05-25T08:16:53;53158.03;;;-139.96;52.03
7906;BME280;13291;40.472;-3.878;2023-05-25T08:19:20;53182.03;;;-139.96;51.32
7906;BME280;13291;40.472;-3.878;2023-05-25T08:21:46;53168.03;;;-139.96;50.86
7906;BME280;13291;40.472;-3.878;2023-05-25T08:24:13;53178.03;;;-139.96;50.78
7906;BME280;13291;40.472;-3.878;2023-05-25T08:26:40;53146.00;;;-139.96;50.78
7906;BME280;13291;40.472;-3.878;2023-05-25T08:29:09;53162.03;;;-139.96;50.61
7906;BME280;13291;40.472;-3.878;2023-05-25T08:31:35;53166.03;;;-139.96;50.49
7906;BME280;13291;40.472;-3.878;2023-05-25T08:34:02;53162.03;;;-139.96;50.14
7906;BME280;13291;40.472;-3.878;2023-05-25T08:36:29;53166.03;;;-139.96;50.56
7906;BME280;13291;40.472;-3.878;2023-05-25T08:38:58;53186.03;;;-139.96;50.19
7906;BME280;13291;40.472;-3.878;2023-05-25T08:41:25;53170.03;;;-139.96;50.53
7906;BME280;13291;40.472;-3.878;2023-05-25T08:43:52;53146.00;;;-139.96;51.13
7906;BME280;13291;40.472;-3.878;2023-05-25T08:46:27;53164.03;;;-139.96;50.43
7906;BME280;13291;40.472;-3.878;2023-05-25T08:48:59;53182.03;;;-139.96;50.99
7906;BME280;13291;40.472;-3.878;2023-05-25T08:51:34;53182.03;;;-139.96;50.34
7906;BME280;13291;40.472;-3.878;2023-05-25T08:54:06;53178.03;;;-139.96;49.90
7906;BME280;13291;40.472;-3.878;2023-05-25T08:56:39;53138.00;;;-139.96;50.19
7906;BME280;13291;40.472;-3.878;2023-05-25T08:59:14;53162.03;;;-139.96;50.04
7906;BME280;13291;40.472;-3.878;2023-05-25T09:01:46;53174.03;;;-139.96;49.97
7906;BME280;13291;40.472;-3.878;2023-05-25T09:04:18;53182.03;;;-139.96;48.99
7906;BME280;13291;40.472;-3.878;2023-05-25T09:06:47;53178.03;;;-139.96;49.19
7906;BME280;13291;40.472;-3.878;2023-05-25T09:09:15;53146.00;;;-139.96;50.04
7906;BME280;13291;40.472;-3.878;2023-05-25T09:11:42;53118.00;;;-139.96;50.23
7906;BME280;13291;40.472;-3.878;2023-05-25T09:14:10;53172.03;;;-139.96;50.44
7906;BME280;13291;40.472;-3.878;2023-05-25T09:16:37;53164.03;;;-139.96;50.45
7906;BME280;13291;40.472;-3.878;2023-05-25T09:19:05;53174.03;;;-139.96;50.66
7906;BME280;13291;40.472;-3.878;2023-05-25T09:21:32;53178.03;;;-139.96;49.39
7906;BME280;13291;40.472;-3.878;2023-05-25T09:23:59;53130.00;;;-139.96;49.06
7906;BME280;13291;40.472;-3.878;2023-05-25T09:26:26;53178.03;;;-139.96;49.92
7906;BME280;13291;40.472;-3.878;2023-05-25T09:28:53;53134.00;;;-139.96;49.01
7906;BME280;13291;40.472;-3.878;2023-05-25T09:31:22;53176.03;;;-139.96;49.55
7906;BME280;13291;40.472;-3.878;2023-05-25T09:33:50;53164.03;;;-139.96;49.60
7906;BME280;13291;40.472;-3.878;2023-05-25T09:36:21;53138.00;;;-139.96;49.62
7906;BME280;13291;40.472;-3.878;2023-05-25T09:38:48;53122.00;;;-139.96;49.55
7906;BME280;13291;40.472;-3.878;2023-05-25T09:41:18;53176.03;;;-139.96;48.48
7906;BME280;13291;40.472;-3.878;2023-05-25T09:43:46;53136.00;;;-139.96;47.95
7906;BME280;13291;40.472;-3.878;2023-05-25T09:46:13;53126.00;;;-139.96;47.53
7906;BME280;13291;40.472;-3.878;2023-05-25T09:48:40;53146.00;;;-139.96;47.68
7906;BME280;13291;40.472;-3.878;2023-05-25T09:51:07;53134.00;;;-139.96;46.87
7906;BME280;13291;40.472;-3.878;2023-05-25T09:53:36;53148.00;;;-139.96;46.37
7906;BME280;13291;40.472;-3.878;2023-05-25T09:56:03;53154.00;;;-139.96;46.82
7906;BME280;13291;40.472;-3.878;2023-05-25T09:58:30;53102.00;;;-139.96;47.09
7906;BME280;13291;40.472;-3.878;2023-05-25T10:00:58;53104.00;;;-139.96;47.37
7906;BME280;13291;40.472;-3.878;2023-05-25T10:03:25;53128.00;;;-139.96;48.39
7906;BME280;13291;40.472;-3.878;2023-05-25T10:05:53;53126.00;;;-139.96;48.78
7906;BME280;13291;40.472;-3.878;2023-05-25T10:08:21;53124.00;;;-139.96;48.39
7906;BME280;13291;40.472;-3.878;2023-05-25T10:10:51;53154.00;;;-139.96;48.77
7906;BME280;13291;40.472;-3.878;2023-05-25T10:13:20;53106.00;;;-139.96;48.63
7906;BME280;13291;40.472;-3.878;2023-05-25T10:15:51;53108.00;;;-139.96;47.71
7906;BME280;13291;40.472;-3.878;2023-05-25T10:18:20;53104.00;;;-139.96;47.69
7906;BME280;13291;40.472;-3.878;2023-05-25T10:20:54;53138.00;;;-139.96;47.43
7906;BME280;13291;40.472;-3.878;2023-05-25T10:23:23;53140.00;;;-139.96;47.61
7906;BME280;13291;40.472;-3.878;2023-05-25T10:25:54;53132.00;;;-139.96;48.62
7906;BME280;13291;40.472;-3.878;2023-05-25T10:28:27;53148.00;;;-139.96;46.98
7906;BME280;13291;40.472;-3.878;2023-05-25T10:30:55;53138.00;;;-139.96;47.18
7906;BME280;13291;40.472;-3.878;2023-05-25T10:33:22;53136.00;;;-139.96;47.10
7906;BME280;13291;40.472;-3.878;2023-05-25T10:35:51;53128.00;;;-139.96;46.56
7906;BME280;13291;40.472;-3.878;2023-05-25T10:38:20;53122.00;;;-139.96;47.70
7906;BME280;13291;40.472;-3.878;2023-05-25T10:40:48;53134.00;;;-139.96;48.34
7906;BME280;13291;40.472;-3.878;2023-05-25T10:43:19;53122.00;;;-139.96;47.93
7906;BME280;13291;40.472;-3.878;2023-05-25T10:45:47;53128.00;;;-139.96;47.04
7906;BME280;13291;40.472;-3.878;2023-05-25T10:48:14;53140.00;;;-139.96;46.45
7906;BME280;13291;40.472;-3.878;2023-05-25T10:50:41;53130.00;;;-139.96;44.98
7906;BME280;13291;40.472;-3.878;2023-05-25T10:53:15;53098.00;;;-139.96;46.02
7906;BME280;13291;40.472;-3.878;2023-05-25T10:55:43;53112.00;;;-139.96;46.90
7906;BME280;13291;40.472;-3.878;2023-05-25T10:58:16;53134.00;;;-139.96;47.49
7906;BME280;13291;40.472;-3.878;2023-05-25T11:00:56;53130.00;;;-139.96;48.17
7906;BME280;13291;40.472;-3.878;2023-05-25T11:03:46;53128.00;;;-139.96;46.90
7906;BME280;13291;40.472;-3.878;2023-05-25T11:06:15;53110.00;;;-139.96;46.51
7906;BME280;13291;40.472;-3.878;2023-05-25T11:08:51;53130.00;;;-139.96;46.27
7906;BME280;13291;40.472;-3.878;2023-05-25T11:11:19;53106.00;;;-139.96;44.61
7906;BME280;13291;40.472;-3.878;2023-05-25T11:13:47;53108.00;;;-139.96;45.31
7906;BME280;13291;40.472;-3.878;2023-05-25T11:16:20;53116.00;;;-139.96;45.65
7906;BME280;13291;40.472;-3.878;2023-05-25T11:18:53;53128.00;;;-139.96;45.12
7906;BME280;13291;40.472;-3.878;2023-05-25T11:21:40;53116.00;;;-139.96;45.73
7906;BME280;13291;40.472;-3.878;2023-05-25T11:24:13;53112.00;;;-139.96;45.67
7906;BME280;13291;40.472;-3.878;2023-05-25T11:26:56;53102.00;;;-139.96;45.70
7906;BME280;13291;40.472;-3.878;2023-05-25T11:29:23;53122.00;;;-139.96;44.33
7906;BME280;13291;40.472;-3.878;2023-05-25T11:31:54;53122.00;;;-139.96;44.98
7906;BME280;13291;40.472;-3.878;2023-05-25T11:34:22;53118.00;;;-139.96;43.89
7906;BME280;13291;40.472;-3.878;2023-05-25T11:36:53;53124.00;;;-139.96;43.62
7906;BME280;13291;40.472;-3.878;2023-05-25T11:39:22;53094.00;;;-139.96;42.65
7906;BME280;13291;40.472;-3.878;2023-05-25T11:41:51;53124.00;;;-139.96;43.47
7906;BME280;13291;40.472;-3.878;2023-05-25T11:44:27;53122.00;;;-139.96;43.41
7906;BME280;13291;40.472;-3.878;2023-05-25T11:46:59;53136.00;;;-139.96;44.05
7906;BME280;13291;40.472;-3.878;2023-05-25T11:49:26;53126.00;;;-139.96;42.06
7906;BME280;13291;40.472;-3.878;2023-05-25T11:51:55;53090.00;;;-139.96;42.46
7906;BME280;13291;40.472;-3.878;2023-05-25T11:54:24;53074.00;;;-139.96;42.75
7906;BME280;13291;40.472;-3.878;2023-05-25T11:56:51;53126.00;;;-139.96;44.06
7906;BME280;13291;40.472;-3.878;2023-05-25T11:59:21;53082.00;;;-139.96;43.22
7906;BME280;13291;40.472;-3.878;2023-05-25T12:01:58;53112.00;;;-139.96;40.65
7906;BME280;13291;40.472;-3.878;2023-05-25T12:04:25;53104.00;;;-139.96;40.50
7906;BME280;13291;40.472;-3.878;2023-05-25T12:06:52;53110.00;;;-139.96;40.91
7906;BME280;13291;40.472;-3.878;2023-05-25T12:09:26;53072.00;;;-139.96;41.01
7906;BME280;13291;40.472;-3.878;2023-05-25T12:11:53;53062.00;;;-139.96;40.91
7906;BME280;13291;40.472;-3.878;2023-05-25T12:14:20;53090.00;;;-139.96;39.80
7906;BME280;13291;40.472;-3.878;2023-05-25T12:16:48;53090.00;;;-139.96;40.81
7906;BME280;13291;40.472;-3.878;2023-05-25T12:19:17;53082.00;;;-139.96;41.35
7906;BME280;13291;40.472;-3.878;2023-05-25T12:21:44;53064.00;;;-139.96;40.48
7906;BME280;13291;40.472;-3.878;2023-05-25T12:24:12;53084.00;;;-139.96;41.08
7906;BME280;13291;40.472;-3.878;2023-05-25T12:26:46;53090.00;;;-139.96;40.65
7906;BME280;13291;40.472;-3.878;2023-05-25T12:29:13;53090.00;;;-139.96;40.53
7906;BME280;13291;40.472;-3.878;2023-05-25T12:31:41;53066.00;;;-139.96;40.65
7906;BME280;13291;40.472;-3.878;2023-05-25T12:34:09;53084.00;;;-139.96;40.70
7906;BME280;13291;40.472;-3.878;2023-05-25T12:36:43;53066.00;;;-139.96;40.86
7906;BME280;13291;40.472;-3.878;2023-05-25T12:39:12;53088.00;;;-139.96;41.43
7906;BME280;13291;40.472;-3.878;2023-05-25T12:41:44;53078.00;;;-139.96;40.91
7906;BME280;13291;40.472;-3.878;2023-05-25T12:44:20;53096.00;;;-139.96;42.01
7906;BME280;13291;40.472;-3.878;2023-05-25T12:46:47;53124.00;;;-139.96;46.80